sensor_id;sensor_type;location;lat;lon;timestamp;pressure;altitude;pressure_sealevel;temperature;humidity
50394;BME280;36308;46.312;25.288;2024-02-21T00:00:34;96740.91;;;3.06;69.54
50394;BME280;36308;46.312;25.288;2024-02-21T00:02:59;96726.13;;;2.97;69.38
50394;BME280;36308;46.312;25.288;2024-02-21T00:05:27;96738.44;;;3.04;69.45
50394;BME280;36308;46.312;25.288;2024-02-21T00:07:53;96737.00;;;3.02;69.34
50394;BME280;36308;46.312;25.288;2024-02-21T00:10:18;96729.44;;;2.99;68.99
50394;BME280;36308;46.312;25.288;2024-02-21T00:12:44;96738.44;;;3.04;69.37
50394;BME280;36308;46.312;25.288;2024-02-21T00:15:10;96722.91;;;3.01;68.94
50394;BME280;36308;46.312;25.288;2024-02-21T00:17:35;96713.84;;;2.96;69.09
50394;BME280;36308;46.312;25.288;2024-02-21T00:20:22;96723.72;;;3.02;69.60
50394;BME280;36308;46.312;25.288;2024-02-21T00:22:53;96721.47;;;2.99;68.95
50394;BME280;36308;46.312;25.288;2024-02-21T00:25:22;96723.66;;;2.95;69.02
50394;BME280;36308;46.312;25.288;2024-02-21T00:27:47;96717.91;;;2.92;69.49
50394;BME280;36308;46.312;25.288;2024-02-21T00:30:13;96714.25;;;2.93;68.98
50394;BME280;36308;46.312;25.288;2024-02-21T00:32:38;96706.47;;;2.91;69.57
50394;BME280;36308;46.312;25.288;2024-02-21T00:35:04;96711.34;;;2.88;69.39
50394;BME280;36308;46.312;25.288;2024-02-21T00:37:31;96706.84;;;2.88;68.86
50394;BME280;36308;46.312;25.288;2024-02-21T00:39:56;96703.16;;;2.82;69.35
50394;BME280;36308;46.312;25.288;2024-02-21T00:42:22;96705.81;;;2.82;68.68
50394;BME280;36308;46.312;25.288;2024-02-21T00:44:47;96709.44;;;2.81;69.43
50394;BME280;36308;46.312;25.288;2024-02-21T00:47:13;96701.88;;;2.78;69.14
50394;BME280;36308;46.312;25.288;2024-02-21T00:49:38;96707.19;;;2.78;69.04
50394;BME280;36308;46.312;25.288;2024-02-21T00:52:04;96705.09;;;2.74;68.64
50394;BME280;36308;46.312;25.288;2024-02-21T00:54:29;96695.88;;;2.70;68.90
50394;BME280;36308;46.312;25.288;2024-02-21T00:56:55;96698.97;;;2.73;69.38
50394;BME280;36308;46.312;25.288;2024-02-21T00:59:20;96691.13;;;2.65;69.18
50394;BME280;36308;46.312;25.288;2024-02-21T01:01:46;96692.41;;;2.69;68.88
50394;BME280;36308;46.312;25.288;2024-02-21T01:04:11;96698.72;;;2.68;69.39
50394;BME280;36308;46.312;25.288;2024-02-21T01:06:37;96699.72;;;2.67;68.72
50394;BME280;36308;46.312;25.288;2024-02-21T01:09:03;96668.34;;;2.49;69.09
50394;BME280;36308;46.312;25.288;2024-02-21T01:11:29;96703.00;;;2.69;69.57
50394;BME280;36308;46.312;25.288;2024-02-21T01:13:55;96697.06;;;2.67;69.13
50394;BME280;36308;46.312;25.288;2024-02-21T01:16:21;96692.78;;;2.66;69.00
50394;BME280;36308;46.312;25.288;2024-02-21T01:18:46;96702.38;;;2.67;68.96
50394;BME280;36308;46.312;25.288;2024-02-21T01:21:12;96696.44;;;2.65;69.18
50394;BME280;36308;46.312;25.288;2024-02-21T01:23:37;96650.09;;;2.39;69.28
50394;BME280;36308;46.312;25.288;2024-02-21T01:26:03;96686.00;;;2.63;69.43
50394;BME280;36308;46.312;25.288;2024-02-21T01:28:29;96680.50;;;2.65;69.66
50394;BME280;36308;46.312;25.288;2024-02-21T01:30:56;96681.09;;;2.60;69.57
50394;BME280;36308;46.312;25.288;2024-02-21T01:33:22;96678.44;;;2.60;68.73
50394;BME280;36308;46.312;25.288;2024-02-21T01:35:47;96683.94;;;2.59;69.28
50394;BME280;36308;46.312;25.288;2024-02-21T01:38:14;96671.69;;;2.58;69.46
50394;BME280;36308;46.312;25.288;2024-02-21T01:40:39;96678.84;;;2.57;69.15
50394;BME280;36308;46.312;25.288;2024-02-21T01:43:15;96684.56;;;2.61;69.48
50394;BME280;36308;46.312;25.288;2024-02-21T01:45:41;96633.91;;;2.34;69.08
50394;BME280;36308;46.312;25.288;2024-02-21T01:48:06;96670.66;;;2.59;69.49
50394;BME280;36308;46.312;25.288;2024-02-21T01:50:33;96674.97;;;2.60;69.51
50394;BME280;36308;46.312;25.288;2024-02-21T01:52:59;96681.09;;;2.60;69.69
50394;BME280;36308;46.312;25.288;2024-02-21T01:55:24;96672.94;;;2.62;69.77
50394;BME280;36308;46.312;25.288;2024-02-21T01:57:50;96664.97;;;2.62;69.20
50394;BME280;36308;46.312;25.288;2024-02-21T02:00:16;96648.94;;;2.49;69.91
50394;BME280;36308;46.312;25.288;2024-02-21T02:02:41;96669.91;;;2.65;69.64
50394;BME280;36308;46.312;25.288;2024-02-21T02:05:07;96666.59;;;2.63;69.95
50394;BME280;36308;46.312;25.288;2024-02-21T02:07:33;96674.00;;;2.68;69.73
50394;BME280;36308;46.312;25.288;2024-02-21T02:09:59;96669.91;;;2.65;69.97
50394;BME280;36308;46.312;25.288;2024-02-21T02:12:24;96657.03;;;2.62;69.00
50394;BME280;36308;46.312;25.288;2024-02-21T02:15:19;96619.78;;;2.27;68.95
50394;BME280;36308;46.312;25.288;2024-02-21T02:18:04;96664.22;;;2.47;68.47
50394;BME280;36308;46.312;25.288;2024-02-21T02:20:30;96661.69;;;2.38;68.60
50394;BME280;36308;46.312;25.288;2024-02-21T02:22:57;96667.78;;;2.32;68.32
50394;BME280;36308;46.312;25.288;2024-02-21T02:25:25;96660.31;;;2.21;68.52
50394;BME280;36308;46.312;25.288;2024-02-21T02:28:10;96637.44;;;1.98;68.54
50394;BME280;36308;46.312;25.288;2024-02-21T02:30:56;96664.75;;;2.14;68.73
50394;BME280;36308;46.312;25.288;2024-02-21T02:34:04;96655.53;;;2.10;69.59
50394;BME280;36308;46.312;25.288;2024-02-21T02:36:34;96668.16;;;2.08;69.31
50394;BME280;36308;46.312;25.288;2024-02-21T02:39:16;96662.88;;;2.08;69.18
50394;BME280;36308;46.312;25.288;2024-02-21T02:42:21;96677.13;;;2.07;69.27
50394;BME280;36308;46.312;25.288;2024-02-21T02:45:11;96667.72;;;2.04;69.54
50394;BME280;36308;46.312;25.288;2024-02-21T02:47:37;96668.53;;;2.05;69.90
50394;BME280;36308;46.312;25.288;2024-02-21T02:50:24;96670.59;;;2.09;70.03
50394;BME280;36308;46.312;25.288;2024-02-21T02:53:29;96666.16;;;2.10;70.22
50394;BME280;36308;46.312;25.288;2024-02-21T02:56:15;96670.06;;;2.14;70.38
50394;BME280;36308;46.312;25.288;2024-02-21T02:59:00;96669.69;;;2.17;69.93
50394;BME280;36308;46.312;25.288;2024-02-21T03:01:46;96662.47;;;2.11;70.03
50394;BME280;36308;46.312;25.288;2024-02-21T03:04:12;96664.13;;;2.12;70.36
50394;BME280;36308;46.312;25.288;2024-02-21T03:06:38;96673.06;;;2.11;70.14
50394;BME280;36308;46.312;25.288;2024-02-21T03:09:03;96675.09;;;2.09;70.03
50394;BME280;36308;46.312;25.288;2024-02-21T03:11:33;96673.47;;;2.08;70.45
50394;BME280;36308;46.312;25.288;2024-02-21T03:13:59;96677.94;;;2.07;70.35
50394;BME280;36308;46.312;25.288;2024-02-21T03:16:24;96675.28;;;2.07;70.35
50394;BME280;36308;46.312;25.288;2024-02-21T03:18:50;96659.06;;;1.95;70.47
50394;BME280;36308;46.312;25.288;2024-02-21T03:21:16;96685.72;;;2.09;70.47
50394;BME280;36308;46.312;25.288;2024-02-21T03:23:41;96679.41;;;2.10;70.34
50394;BME280;36308;46.312;25.288;2024-02-21T03:26:07;96677.75;;;2.09;70.50
50394;BME280;36308;46.312;25.288;2024-02-21T03:28:32;96684.16;;;2.14;70.79
50394;BME280;36308;46.312;25.288;2024-02-21T03:30:58;96684.59;;;2.18;70.73
50394;BME280;36308;46.312;25.288;2024-02-21T03:33:23;96677.44;;;2.18;70.60
50394;BME280;36308;46.312;25.288;2024-02-21T03:35:49;96670.53;;;2.24;71.17
50394;BME280;36308;46.312;25.288;2024-02-21T03:38:14;96673.19;;;2.24;70.72
50394;BME280;36308;46.312;25.288;2024-02-21T03:40:40;96665.44;;;2.22;70.74
50394;BME280;36308;46.312;25.288;2024-02-21T03:43:05;96676.13;;;2.29;70.64
50394;BME280;36308;46.312;25.288;2024-02-21T03:45:31;96675.72;;;2.32;70.87
50394;BME280;36308;46.312;25.288;2024-02-21T03:47:56;96676.13;;;2.29;70.77
50394;BME280;36308;46.312;25.288;2024-02-21T03:50:22;96674.09;;;2.31;70.48
50394;BME280;36308;46.312;25.288;2024-02-21T03:52:47;96679.84;;;2.35;70.46
50394;BME280;36308;46.312;25.288;2024-02-21T03:55:13;96684.72;;;2.31;70.61
50394;BME280;36308;46.312;25.288;2024-02-21T03:57:38;96683.06;;;2.30;70.21
50394;BME280;36308;46.312;25.288;2024-02-21T04:00:05;96685.72;;;2.30;70.50
50394;BME280;36308;46.312;25.288;2024-02-21T04:02:56;96678.78;;;2.29;70.48
50394;BME280;36308;46.312;25.288;2024-02-21T04:05:21;96667.91;;;2.24;70.41
50394;BME280;36308;46.312;25.288;2024-02-21T04:08:07;96680.16;;;2.25;70.01
50394;BME280;36308;46.312;25.288;2024-02-21T04:10:53;96683.81;;;2.24;70.93
50394;BME280;36308;46.312;25.288;2024-02-21T04:13:27;96680.16;;;2.25;70.36
50394;BME280;36308;46.312;25.288;2024-02-21T04:16:14;96682.63;;;2.27;70.75
50394;BME280;36308;46.312;25.288;2024-02-21T04:18:41;96676.31;;;2.28;71.21
50394;BME280;36308;46.312;25.288;2024-02-21T04:21:07;96679.13;;;2.26;70.77
50394;BME280;36308;46.312;25.288;2024-02-21T04:23:32;96681.44;;;2.29;70.74
50394;BME280;36308;46.312;25.288;2024-02-21T04:26:17;96668.75;;;2.25;70.74
50394;BME280;36308;46.312;25.288;2024-02-21T04:28:45;96677.75;;;2.30;70.49
50394;BME280;36308;46.312;25.288;2024-02-21T04:31:10;96679.41;;;2.31;70.81
50394;BME280;36308;46.312;25.288;2024-02-21T04:33:36;96674.09;;;2.31;70.67
50394;BME280;36308;46.312;25.288;2024-02-21T04:36:41;96671.25;;;2.33;71.40
50394;BME280;36308;46.312;25.288;2024-02-21T04:39:35;96670.41;;;2.32;70.70
50394;BME280;36308;46.312;25.288;2024-02-21T04:42:00;96665.50;;;2.29;70.77
50394;BME280;36308;46.312;25.288;2024-02-21T04:44:26;96668.16;;;2.29;71.21
50394;BME280;36308;46.312;25.288;2024-02-21T04:46:51;96664.88;;;2.27;70.88
50394;BME280;36308;46.312;25.288;2024-02-21T04:49:17;96662.22;;;2.27;70.88
50394;BME280;36308;46.312;25.288;2024-02-21T04:51:42;96661.19;;;2.28;71.27
50394;BME280;36308;46.312;25.288;2024-02-21T04:54:08;96664.25;;;2.25;71.46
50394;BME280;36308;46.312;25.288;2024-02-21T04:56:34;96667.13;;;2.30;70.68
50394;BME280;36308;46.312;25.288;2024-02-21T04:58:59;96651.97;;;2.24;71.30
50394;BME280;36308;46.312;25.288;2024-02-21T05:01:25;96651.97;;;2.24;70.81
50394;BME280;36308;46.312;25.288;2024-02-21T05:03:50;96671.81;;;2.28;71.00
50394;BME280;36308;46.312;25.288;2024-02-21T05:06:17;96662.59;;;2.24;71.67
50394;BME280;36308;46.312;25.288;2024-02-21T05:09:02;96667.53;;;2.27;70.63
50394;BME280;36308;46.312;25.288;2024-02-21T05:11:28;96665.81;;;2.19;71.49
50394;BME280;36308;46.312;25.288;2024-02-21T05:13:53;96676.06;;;2.22;70.67
50394;BME280;36308;46.312;25.288;2024-02-21T05:16:19;96672.97;;;2.19;70.83
50394;BME280;36308;46.312;25.288;2024-02-21T05:18:44;96670.31;;;2.19;71.45
50394;BME280;36308;46.312;25.288;2024-02-21T05:21:10;96640.28;;;1.97;71.47
50394;BME280;36308;46.312;25.288;2024-02-21T05:23:35;96666.38;;;2.15;70.68
50394;BME280;36308;46.312;25.288;2024-02-21T05:26:01;96637.84;;;1.95;71.64
50394;BME280;36308;46.312;25.288;2024-02-21T05:28:26;96676.00;;;2.16;71.04
50394;BME280;36308;46.312;25.288;2024-02-21T05:30:52;96681.31;;;2.16;71.40
50394;BME280;36308;46.312;25.288;2024-02-21T05:33:17;96643.16;;;1.95;71.09
50394;BME280;36308;46.312;25.288;2024-02-21T05:35:50;96676.38;;;2.13;71.61
50394;BME280;36308;46.312;25.288;2024-02-21T05:38:16;96660.75;;;2.03;71.32
50394;BME280;36308;46.312;25.288;2024-02-21T05:40:41;96679.66;;;2.15;71.99
50394;BME280;36308;46.312;25.288;2024-02-21T05:43:07;96682.94;;;2.17;71.68
50394;BME280;36308;46.312;25.288;2024-02-21T05:45:33;96681.66;;;2.13;71.75
50394;BME280;36308;46.312;25.288;2024-02-21T05:48:19;96681.31;;;2.16;71.89
50394;BME280;36308;46.312;25.288;2024-02-21T05:51:24;96678.03;;;2.14;72.00
50394;BME280;36308;46.312;25.288;2024-02-21T05:54:10;96683.34;;;2.14;71.55
50394;BME280;36308;46.312;25.288;2024-02-21T05:56:56;96688.25;;;2.17;72.21
50394;BME280;36308;46.312;25.288;2024-02-21T05:59:22;96681.31;;;2.16;72.26
50394;BME280;36308;46.312;25.288;2024-02-21T06:02:09;96678.03;;;2.14;72.19
50394;BME280;36308;46.312;25.288;2024-02-21T06:05:14;96696.44;;;2.22;72.41
50394;BME280;36308;46.312;25.288;2024-02-21T06:07:39;96691.13;;;2.22;72.19
50394;BME280;36308;46.312;25.288;2024-02-21T06:10:25;96691.13;;;2.22;71.92
50394;BME280;36308;46.312;25.288;2024-02-21T06:12:51;96669.72;;;2.02;71.94
50394;BME280;36308;46.312;25.288;2024-02-21T06:15:17;96692.03;;;2.29;72.41
50394;BME280;36308;46.312;25.288;2024-02-21T06:17:42;96694.31;;;2.32;72.70
50394;BME280;36308;46.312;25.288;2024-02-21T06:20:08;96696.16;;;2.32;72.05
50394;BME280;36308;46.312;25.288;2024-02-21T06:22:33;96693.94;;;2.35;73.00
50394;BME280;36308;46.312;25.288;2024-02-21T06:24:59;96688.44;;;2.37;72.92
50394;BME280;36308;46.312;25.288;2024-02-21T06:27:33;96698.09;;;2.45;73.04
50394;BME280;36308;46.312;25.288;2024-02-21T06:30:18;96707.59;;;2.54;72.56
50394;BME280;36308;46.312;25.288;2024-02-21T06:33:04;96708.84;;;2.58;72.43
50394;BME280;36308;46.312;25.288;2024-02-21T06:35:30;96700.13;;;2.64;71.99
50394;BME280;36308;46.312;25.288;2024-02-21T06:38:38;96706.31;;;2.71;72.35
50394;BME280;36308;46.312;25.288;2024-02-21T06:41:43;96715.34;;;2.77;71.90
50394;BME280;36308;46.312;25.288;2024-02-21T06:44:28;96718.22;;;2.82;72.80
50394;BME280;36308;46.312;25.288;2024-02-21T06:47:14;96707.44;;;2.83;72.66
50394;BME280;36308;46.312;25.288;2024-02-21T06:49:59;96724.25;;;2.91;71.79
50394;BME280;36308;46.312;25.288;2024-02-21T06:53:04;96720.19;;;2.95;72.40
50394;BME280;36308;46.312;25.288;2024-02-21T06:55:50;96717.97;;;2.98;72.20
50394;BME280;36308;46.312;25.288;2024-02-21T06:58:55;96724.97;;;3.06;72.57
50394;BME280;36308;46.312;25.288;2024-02-21T07:01:25;96719.25;;;3.09;72.12
50394;BME280;36308;46.312;25.288;2024-02-21T07:03:52;96715.81;;;3.15;72.10
50394;BME280;36308;46.312;25.288;2024-02-21T07:06:17;96710.13;;;3.18;71.85
50394;BME280;36308;46.312;25.288;2024-02-21T07:09:03;96724.09;;;3.27;71.81
50394;BME280;36308;46.312;25.288;2024-02-21T07:11:28;96684.09;;;3.07;71.56
50394;BME280;36308;46.312;25.288;2024-02-21T07:14:14;96714.34;;;3.34;71.65
50394;BME280;36308;46.312;25.288;2024-02-21T07:17:00;96720.50;;;3.41;71.91
50394;BME280;36308;46.312;25.288;2024-02-21T07:19:25;96718.28;;;3.45;71.67
50394;BME280;36308;46.312;25.288;2024-02-21T07:22:08;96710.53;;;3.50;71.49
50394;BME280;36308;46.312;25.288;2024-02-21T07:24:55;96709.38;;;3.59;71.42
50394;BME280;36308;46.312;25.288;2024-02-21T07:28:01;96712.25;;;3.64;71.72
50394;BME280;36308;46.312;25.288;2024-02-21T07:30:27;96708.16;;;3.69;71.40
50394;BME280;36308;46.312;25.288;2024-02-21T07:32:52;96713.75;;;3.74;71.33
50394;BME280;36308;46.312;25.288;2024-02-21T07:35:18;96709.03;;;3.76;71.14
50394;BME280;36308;46.312;25.288;2024-02-21T07:37:43;96697.59;;;3.82;70.78
50394;BME280;36308;46.312;25.288;2024-02-21T07:40:13;96706.22;;;3.91;70.78
50394;BME280;36308;46.312;25.288;2024-02-21T07:42:39;96709.91;;;3.96;71.14
50394;BME280;36308;46.312;25.288;2024-02-21T07:45:05;96705.03;;;4.00;70.97
50394;BME280;36308;46.312;25.288;2024-02-21T07:47:31;96707.94;;;4.05;70.27
50394;BME280;36308;46.312;25.288;2024-02-21T07:49:56;96703.25;;;4.14;70.44
50394;BME280;36308;46.312;25.288;2024-02-21T07:52:23;96701.00;;;4.17;70.09
50394;BME280;36308;46.312;25.288;2024-02-21T07:54:50;96707.97;;;4.25;70.37
50394;BME280;36308;46.312;25.288;2024-02-21T07:57:15;96702.88;;;4.30;70.05
50394;BME280;36308;46.312;25.288;2024-02-21T07:59:41;96705.53;;;4.37;70.30
50394;BME280;36308;46.312;25.288;2024-02-21T08:02:23;96703.31;;;4.47;70.20
50394;BME280;36308;46.312;25.288;2024-02-21T08:05:09;96698.59;;;4.56;69.63
50394;BME280;36308;46.312;25.288;2024-02-21T08:07:39;96701.50;;;4.61;69.83
50394;BME280;36308;46.312;25.288;2024-02-21T08:10:25;96697.78;;;4.62;69.24
50394;BME280;36308;46.312;25.288;2024-02-21T08:13:12;96705.19;;;4.73;69.39
50394;BME280;36308;46.312;25.288;2024-02-21T08:16:02;96706.81;;;4.81;68.96
50394;BME280;36308;46.312;25.288;2024-02-21T08:18:52;96697.00;;;4.88;69.08
50394;BME280;36308;46.312;25.288;2024-02-21T08:21:18;96692.06;;;4.92;68.44
50394;BME280;36308;46.312;25.288;2024-02-21T08:24:24;96710.91;;;5.03;68.53
50394;BME280;36308;46.312;25.288;2024-02-21T08:27:09;96705.59;;;5.10;68.12
50394;BME280;36308;46.312;25.288;2024-02-21T08:29:35;96700.66;;;5.14;68.07
50394;BME280;36308;46.312;25.288;2024-02-21T08:32:21;96668.47;;;5.02;68.04
50394;BME280;36308;46.312;25.288;2024-02-21T08:35:07;96712.94;;;5.35;67.95
50394;BME280;36308;46.312;25.288;2024-02-21T08:37:54;96708.00;;;5.45;68.06
50394;BME280;36308;46.312;25.288;2024-02-21T08:40:59;96707.16;;;5.51;67.54
50394;BME280;36308;46.312;25.288;2024-02-21T08:43:25;96710.22;;;5.61;67.42
50394;BME280;36308;46.312;25.288;2024-02-21T08:46:31;96713.72;;;5.69;67.27
50394;BME280;36308;46.312;25.288;2024-02-21T08:49:37;96705.44;;;5.77;66.83
50394;BME280;36308;46.312;25.288;2024-02-21T08:52:03;96707.47;;;5.88;66.59
50394;BME280;36308;46.312;25.288;2024-02-21T08:54:30;96698.00;;;5.92;66.51
50394;BME280;36308;46.312;25.288;2024-02-21T08:57:20;96702.94;;;6.02;66.62
50394;BME280;36308;46.312;25.288;2024-02-21T08:59:48;96684.25;;;5.95;66.26
50394;BME280;36308;46.312;25.288;2024-02-21T09:02:17;96688.94;;;6.06;66.89
50394;BME280;36308;46.312;25.288;2024-02-21T09:04:43;96706.53;;;6.21;66.52
50394;BME280;36308;46.312;25.288;2024-02-21T09:07:35;96700.72;;;6.31;66.74
50394;BME280;36308;46.312;25.288;2024-02-21T09:10:05;96704.34;;;6.43;66.91
50394;BME280;36308;46.312;25.288;2024-02-21T09:12:51;96700.81;;;6.56;66.89
50394;BME280;36308;46.312;25.288;2024-02-21T09:15:19;96710.00;;;6.60;66.72
50394;BME280;36308;46.312;25.288;2024-02-21T09:17:44;96700.50;;;6.71;66.64
50394;BME280;36308;46.312;25.288;2024-02-21T09:20:10;96696.94;;;6.77;66.62
50394;BME280;36308;46.312;25.288;2024-02-21T09:22:37;96697.91;;;6.82;66.75
50394;BME280;36308;46.312;25.288;2024-02-21T09:25:05;96705.66;;;6.91;66.51
50394;BME280;36308;46.312;25.288;2024-02-21T09:27:31;96709.72;;;7.00;66.46
50394;BME280;36308;46.312;25.288;2024-02-21T09:29:56;96703.13;;;7.02;66.40
50394;BME280;36308;46.312;25.288;2024-02-21T09:32:22;96702.38;;;7.14;66.47
50394;BME280;36308;46.312;25.288;2024-02-21T09:34:47;96706.66;;;7.21;66.27
50394;BME280;36308;46.312;25.288;2024-02-21T09:37:13;96708.63;;;7.33;66.02
50394;BME280;36308;46.312;25.288;2024-02-21T09:39:38;96696.44;;;7.37;65.72
50394;BME280;36308;46.312;25.288;2024-02-21T09:42:06;96704.16;;;7.45;64.98
50394;BME280;36308;46.312;25.288;2024-02-21T09:44:38;96697.31;;;7.49;65.07
50394;BME280;36308;46.312;25.288;2024-02-21T09:47:22;96708.41;;;7.53;64.84
50394;BME280;36308;46.312;25.288;2024-02-21T09:49:49;96694.06;;;7.47;65.14
50394;BME280;36308;46.312;25.288;2024-02-21T09:52:17;96699.59;;;7.71;64.84
50394;BME280;36308;46.312;25.288;2024-02-21T09:54:44;96694.97;;;7.78;64.17
50394;BME280;36308;46.312;25.288;2024-02-21T09:57:10;96703.06;;;7.89;64.65
50394;BME280;36308;46.312;25.288;2024-02-21T09:59:37;96696.81;;;7.96;64.01
50394;BME280;36308;46.312;25.288;2024-02-21T10:02:03;96698.72;;;8.07;62.93
50394;BME280;36308;46.312;25.288;2024-02-21T10:04:30;96697.41;;;8.16;62.71
50394;BME280;36308;46.312;25.288;2024-02-21T10:06:55;96660.44;;;8.06;62.95
50394;BME280;36308;46.312;25.288;2024-02-21T10:09:26;96688.50;;;8.34;62.55
50394;BME280;36308;46.312;25.288;2024-02-21T10:11:55;96686.69;;;8.46;61.48
50394;BME280;36308;46.312;25.288;2024-02-21T10:14:21;96673.09;;;8.48;61.60
50394;BME280;36308;46.312;25.288;2024-02-21T10:16:57;96680.69;;;8.63;60.85
50394;BME280;36308;46.312;25.288;2024-02-21T10:19:25;96675.59;;;8.73;60.72
50394;BME280;36308;46.312;25.288;2024-02-21T10:22:09;96672.00;;;8.79;61.24
50394;BME280;36308;46.312;25.288;2024-02-21T10:24:36;96671.66;;;8.87;60.50
50394;BME280;36308;46.312;25.288;2024-02-21T10:27:07;96657.22;;;8.88;60.35
50394;BME280;36308;46.312;25.288;2024-02-21T10:29:34;96668.19;;;8.99;60.69
50394;BME280;36308;46.312;25.288;2024-02-21T10:32:11;96630.03;;;8.85;60.62
50394;BME280;36308;46.312;25.288;2024-02-21T10:34:38;96658.88;;;9.13;60.29
50394;BME280;36308;46.312;25.288;2024-02-21T10:37:06;96648.25;;;9.18;60.53
50394;BME280;36308;46.312;25.288;2024-02-21T10:39:33;96639.25;;;9.24;60.17
50394;BME280;36308;46.312;25.288;2024-02-21T10:42:03;96644.38;;;9.38;60.07
50394;BME280;36308;46.312;25.288;2024-02-21T10:44:30;96644.59;;;9.48;59.16
50394;BME280;36308;46.312;25.288;2024-02-21T10:47:16;96645.06;;;9.57;59.68
50394;BME280;36308;46.312;25.288;2024-02-21T10:50:06;96646.09;;;9.67;58.83
50394;BME280;36308;46.312;25.288;2024-02-21T10:55:20;96632.97;;;9.83;58.98
50394;BME280;36308;46.312;25.288;2024-02-21T10:58:07;96618.59;;;9.89;58.42
50394;BME280;36308;46.312;25.288;2024-02-21T11:01:13;96623.00;;;9.95;57.40
50394;BME280;36308;46.312;25.288;2024-02-21T11:03:51;96620.44;;;10.00;57.92
50394;BME280;36308;46.312;25.288;2024-02-21T11:06:20;96614.56;;;10.03;57.36
50394;BME280;36308;46.312;25.288;2024-02-21T11:08:47;96613.53;;;10.04;57.36
50394;BME280;36308;46.312;25.288;2024-02-21T11:11:14;96582.66;;;9.90;57.47
50394;BME280;36308;46.312;25.288;2024-02-21T11:13:43;96615.94;;;10.18;57.71
50394;BME280;36308;46.312;25.288;2024-02-21T11:16:35;96612.50;;;10.22;56.94
50394;BME280;36308;46.312;25.288;2024-02-21T11:19:43;96614.47;;;10.27;56.68
50394;BME280;36308;46.312;25.288;2024-02-21T11:22:16;96608.66;;;10.30;56.92
50394;BME280;36308;46.312;25.288;2024-02-21T11:25:07;96604.44;;;10.34;57.23
50394;BME280;36308;46.312;25.288;2024-02-21T11:27:37;96598.56;;;10.37;56.63
50394;BME280;36308;46.312;25.288;2024-02-21T11:30:04;96597.50;;;10.38;56.27
50394;BME280;36308;46.312;25.288;2024-02-21T11:32:30;96601.91;;;10.44;56.55
50394;BME280;36308;46.312;25.288;2024-02-21T11:35:02;96596.03;;;10.47;55.70
50394;BME280;36308;46.312;25.288;2024-02-21T11:37:31;96599.88;;;10.51;55.63
50394;BME280;36308;46.312;25.288;2024-02-21T11:39:59;96583.75;;;10.51;55.48
50394;BME280;36308;46.312;25.288;2024-02-21T11:42:28;96583.75;;;10.51;54.90
50394;BME280;36308;46.312;25.288;2024-02-21T11:44:56;96583.28;;;10.55;55.35
50394;BME280;36308;46.312;25.288;2024-02-21T11:47:23;96588.16;;;10.58;55.15
50394;BME280;36308;46.312;25.288;2024-02-21T11:49:49;96565.09;;;10.45;54.91
50394;BME280;36308;46.312;25.288;2024-02-21T11:52:21;96568.13;;;10.48;54.52
50394;BME280;36308;46.312;25.288;2024-02-21T11:54:48;96555.72;;;10.47;54.01
50394;BME280;36308;46.312;25.288;2024-02-21T11:57:13;96576.91;;;10.61;54.10
50394;BME280;36308;46.312;25.288;2024-02-21T11:59:40;96549.06;;;10.50;54.33
50394;BME280;36308;46.312;25.288;2024-02-21T12:02:06;96567.78;;;10.62;54.45
50394;BME280;36308;46.312;25.288;2024-02-21T12:04:32;96572.69;;;10.65;54.60
50394;BME280;36308;46.312;25.288;2024-02-21T12:06:58;96567.63;;;10.68;53.85
50394;BME280;36308;46.312;25.288;2024-02-21T12:09:24;96562.75;;;10.65;53.67
50394;BME280;36308;46.312;25.288;2024-02-21T12:11:58;96562.22;;;10.68;54.03
50394;BME280;36308;46.312;25.288;2024-02-21T12:14:25;96560.38;;;10.69;53.14
50394;BME280;36308;46.312;25.288;2024-02-21T12:16:51;96556.84;;;10.68;53.32
50394;BME280;36308;46.312;25.288;2024-02-21T12:19:17;96551.97;;;10.65;53.33
50394;BME280;36308;46.312;25.288;2024-02-21T12:21:42;96547.41;;;10.66;53.12
50394;BME280;36308;46.312;25.288;2024-02-21T12:27:00;96548.56;;;10.70;53.03
50394;BME280;36308;46.312;25.288;2024-02-21T12:29:47;96542.13;;;10.71;53.29
50394;BME280;36308;46.312;25.288;2024-02-21T12:32:13;96541.38;;;10.76;53.43
50394;BME280;36308;46.312;25.288;2024-02-21T12:34:38;96532.91;;;10.84;54.02
50394;BME280;36308;46.312;25.288;2024-02-21T12:37:04;96535.97;;;10.92;53.37
50394;BME280;36308;46.312;25.288;2024-02-21T12:39:29;96538.25;;;11.01;52.12
50394;BME280;36308;46.312;25.288;2024-02-21T12:41:55;96539.13;;;11.06;52.15
50394;BME280;36308;46.312;25.288;2024-02-21T12:44:21;96534.56;;;11.07;52.11
50394;BME280;36308;46.312;25.288;2024-02-21T12:46:47;96530.31;;;11.11;52.04
50394;BME280;36308;46.312;25.288;2024-02-21T12:49:17;96533.00;;;11.11;51.75
50394;BME280;36308;46.312;25.288;2024-02-21T12:51:43;96498.31;;;10.92;51.71
50394;BME280;36308;46.312;25.288;2024-02-21T12:54:09;96528.75;;;11.15;51.70
50394;BME280;36308;46.312;25.288;2024-02-21T12:56:37;96528.25;;;11.18;51.52
50394;BME280;36308;46.312;25.288;2024-02-21T12:59:03;96523.00;;;11.28;52.21
50394;BME280;36308;46.312;25.288;2024-02-21T13:01:28;96505.22;;;11.27;51.74
50394;BME280;36308;46.312;25.288;2024-02-21T13:03:54;96516.16;;;11.43;50.97
50394;BME280;36308;46.312;25.288;2024-02-21T13:06:21;96521.91;;;11.51;51.22
50394;BME280;36308;46.312;25.288;2024-02-21T13:08:46;96513.91;;;11.57;51.02
50394;BME280;36308;46.312;25.288;2024-02-21T13:11:12;96515.38;;;11.64;51.04
50394;BME280;36308;46.312;25.288;2024-02-21T13:13:38;96514.16;;;11.77;50.43
50394;BME280;36308;46.312;25.288;2024-02-21T13:16:04;96503.47;;;11.87;50.16
50394;BME280;36308;46.312;25.288;2024-02-21T13:18:29;96513.06;;;12.00;50.11
50394;BME280;36308;46.312;25.288;2024-02-21T13:20:55;96500.75;;;12.09;50.10
50394;BME280;36308;46.312;25.288;2024-02-21T13:23:21;96498.97;;;12.20;50.39
50394;BME280;36308;46.312;25.288;2024-02-21T13:25:47;96503.69;;;12.40;49.98
50394;BME280;36308;46.312;25.288;2024-02-21T13:28:12;96509.72;;;12.52;49.96